sensor_id;sensor_type;location;lat;lon;timestamp;pressure;altitude;pressure_sealevel;temperature;humidity
77517;BME280;66628;53.946;27.634;2023-03-05T20:58:40;97337.593750;;;20.250000;25.171875
77517;BME280;66628;53.946;27.634;2023-03-05T20:59:40;97338.812500;;;20.299999;24.882812
77517;BME280;66628;53.946;27.634;2023-03-05T21:00:40;97333.937500;;;20.330000;24.862305
77517;BME280;66628;53.946;27.634;2023-03-05T21:01:40;97333.609375;;;20.360001;24.852539
77517;BME280;66628;53.946;27.634;2023-03-05T21:02:40;97331.359375;;;20.389999;24.775391
77517;BME280;66628;53.946;27.634;2023-03-05T21:03:40;97329.500000;;;20.420000;24.653320
77517;BME280;66628;53.946;27.634;2023-03-05T21:04:40;97326.976562;;;20.440001;24.598633
77517;BME280;66628;53.946;27.634;2023-03-05T21:05:40;97331.843750;;;20.459999;24.566406
77517;BME280;66628;53.946;27.634;2023-03-05T21:06:40;97330.718750;;;20.469999;24.488281
77517;BME280;66628;53.946;27.634;2023-03-05T21:07:40;97331.132812;;;20.500000;24.366211
77517;BME280;66628;53.946;27.634;2023-03-05T21:43:22;97339.414062;;;20.240000;23.499023
77517;BME280;66628;53.946;27.634;2023-03-05T21:44:22;97334.976562;;;20.209999;23.395508
77517;BME280;66628;53.946;27.634;2023-03-05T21:45:23;97340.921875;;;20.320000;23.637695
77517;BME280;66628;53.946;27.634;2023-03-05T21:46:22;97341.375000;;;20.530001;28.632812
77517;BME280;66628;53.946;27.634;2023-03-05T21:47:22;97337.171875;;;20.559999;24.312500
77517;BME280;66628;53.946;27.634;2023-03-05T21:48:22;97342.781250;;;20.879999;25.341797
77517;BME280;66628;53.946;27.634;2023-03-05T21:49:22;97340.093750;;;21.270000;24.903320
77517;BME280;66628;53.946;27.634;2023-03-05T21:50:22;97342.140625;;;21.650000;24.609375
77517;BME280;66628;53.946;27.634;2023-03-05T22:11:22;97319.578125;;;3.870000;35.668945
77517;BME280;66628;53.946;27.634;2023-03-05T22:13:22;97320.617188;;;2.770000;39.358398
77517;BME280;66628;53.946;27.634;2023-03-05T22:14:22;97320.546875;;;2.420000;38.714844
77517;BME280;66628;53.946;27.634;2023-03-05T22:16:10;97329.140625;;;1.950000;41.007812
77517;BME280;66628;53.946;27.634;2023-03-05T23:01:31;97326.867188;;;-0.190000;51.597656
77517;BME280;66628;53.946;27.634;2023-03-05T23:02:31;97324.835938;;;-0.160000;51.358398
77517;BME280;66628;53.946;27.634;2023-03-05T23:03:31;97320.968750;;;-0.190000;51.960938
77517;BME280;66628;53.946;27.634;2023-03-05T23:04:54;97329.296875;;;-0.190000;51.609375
77517;BME280;66628;53.946;27.634;2023-03-05T23:05:54;97327.562500;;;-0.190000;51.515625
77517;BME280;66628;53.946;27.634;2023-03-05T23:06:54;97325.203125;;;-0.170000;51.325195
77517;BME280;66628;53.946;27.634;2023-03-05T23:07:54;97329.492188;;;-0.130000;50.979492
77517;BME280;66628;53.946;27.634;2023-03-05T23:08:54;97333.015625;;;-0.160000;51.496094
77517;BME280;66628;53.946;27.634;2023-03-05T23:09:55;97335.203125;;;-0.220000;52.030273
77517;BME280;66628;53.946;27.634;2023-03-05T23:10:54;97331.078125;;;-0.280000;52.097656
77517;BME280;66628;53.946;27.634;2023-03-05T23:11:54;97333.765625;;;-0.320000;52.326172
77517;BME280;66628;53.946;27.634;2023-03-05T23:12:54;97333.937500;;;-0.390000;53.017578
77517;BME280;66628;53.946;27.634;2023-03-05T23:13:54;97333.648438;;;-0.470000;53.083008
77517;BME280;66628;53.946;27.634;2023-03-05T23:14:54;97333.750000;;;-0.480000;53.060547
77517;BME280;66628;53.946;27.634;2023-03-05T23:15:54;97329.890625;;;-0.470000;53.401367
77517;BME280;66628;53.946;27.634;2023-03-05T23:16:54;97333.195312;;;-0.590000;53.694336
77517;BME280;66628;53.946;27.634;2023-03-05T23:17:54;97329.867188;;;-0.580000;53.705078
77517;BME280;66628;53.946;27.634;2023-03-05T23:18:54;97327.945312;;;-0.580000;53.726562
77517;BME280;66628;53.946;27.634;2023-03-05T23:19:54;97329.093750;;;-0.560000;53.676758
77517;BME280;66628;53.946;27.634;2023-03-05T23:20:54;97326.179688;;;-0.500000;53.280273
77517;BME280;66628;53.946;27.634;2023-03-05T23:21:54;97327.421875;;;-0.450000;52.989258
77517;BME280;66628;53.946;27.634;2023-03-05T23:22:54;97325.539062;;;-0.440000;52.937500
77517;BME280;66628;53.946;27.634;2023-03-05T23:23:54;97323.734375;;;-0.470000;53.251953
77517;BME280;66628;53.946;27.634;2023-03-05T23:24:54;97323.406250;;;-0.440000;52.852539
77517;BME280;66628;53.946;27.634;2023-03-05T23:25:54;97328.531250;;;-0.390000;52.529297
77517;BME280;66628;53.946;27.634;2023-03-05T23:26:54;97327.632812;;;-0.380000;52.542969
77517;BME280;66628;53.946;27.634;2023-03-05T23:27:54;97327.328125;;;-0.400000;52.699219
77517;BME280;66628;53.946;27.634;2023-03-05T23:28:54;97328.531250;;;-0.470000;53.166992
77517;BME280;66628;53.946;27.634;2023-03-05T23:30:54;97329.710938;;;-0.430000;52.844727
77517;BME280;66628;53.946;27.634;2023-03-05T23:31:54;97329.390625;;;-0.450000;53.095703
77517;BME280;66628;53.946;27.634;2023-03-05T23:33:53;97328.203125;;;-0.450000;53.010742
77517;BME280;66628;53.946;27.634;2023-03-05T23:34:54;97329.109375;;;-0.450000;52.904297
77517;BME280;66628;53.946;27.634;2023-03-05T23:35:54;97325.468750;;;-0.480000;53.176758
77517;BME280;66628;53.946;27.634;2023-03-05T23:36:54;97326.406250;;;-0.550000;53.676758
77517;BME280;66628;53.946;27.634;2023-03-05T23:37:54;97325.312500;;;-0.560000;53.696289
77517;BME280;66628;53.946;27.634;2023-03-05T23:38:54;97326.148438;;;-0.500000;53.280273
77517;BME280;66628;53.946;27.634;2023-03-05T23:39:53;97325.828125;;;-0.530000;53.669922
77517;BME280;66628;53.946;27.634;2023-03-05T23:40:54;97326.984375;;;-0.490000;53.302734
77517;BME280;66628;53.946;27.634;2023-03-05T23:41:54;97325.421875;;;-0.530000;53.721680
77517;BME280;66628;53.946;27.634;2023-03-05T23:42:53;97324.804688;;;-0.560000;53.824219
77517;BME280;66628;53.946;27.634;2023-03-05T23:43:53;97325.453125;;;-0.560000;53.961914
77517;BME280;66628;53.946;27.634;2023-03-05T23:44:54;97326.562500;;;-0.560000;53.888672
77517;BME280;66628;53.946;27.634;2023-03-05T23:45:54;97327.906250;;;-0.570000;54.065430
77517;BME280;66628;53.946;27.634;2023-03-05T23:46:53;97327.570312;;;-0.560000;53.973633
77517;BME280;66628;53.946;27.634;2023-03-05T23:47:54;97326.226562;;;-0.520000;53.775391
77517;BME280;66628;53.946;27.634;2023-03-05T23:48:53;97325.984375;;;-0.520000;53.776367
77517;BME280;66628;53.946;27.634;2023-03-05T23:49:53;97324.625000;;;-0.500000;53.842773
77517;BME280;66628;53.946;27.634;2023-03-05T23:50:54;97327.093750;;;-0.490000;53.672852
77517;BME280;66628;53.946;27.634;2023-03-05T23:51:53;97322.265625;;;-0.480000;53.546875
77517;BME280;66628;53.946;27.634;2023-03-05T23:52:54;97328.093750;;;-0.470000;53.487305
77517;BME280;66628;53.946;27.634;2023-03-05T23:53:54;97329.625000;;;-0.550000;54.132812
77517;BME280;66628;53.946;27.634;2023-03-05T23:54:53;97329.171875;;;-0.610000;54.243164
77517;BME280;68414;53.946;27.634;2023-03-05T23:55:54;97331.921875;;;-0.570000;54.013672
77517;BME280;68414;53.946;27.634;2023-03-05T23:56:53;97328.820312;;;-0.560000;54.132812
77517;BME280;68414;53.946;27.634;2023-03-05T23:57:54;97327.554688;;;-0.590000;54.223633
77517;BME280;68414;53.946;27.634;2023-03-05T23:58:53;97328.468750;;;-0.570000;54.120117
77517;BME280;68414;53.946;27.634;2023-03-05T23:59:53;97332.125000;;;-0.570000;54.192383
